sensor_id;sensor_type;location;lat;lon;timestamp;P1;durP1;ratioP1;P2;durP2;ratioP2
20928;SDS011;21895;47.072;15.132;2023-03-14T00:01:34;5.80;;;2.10;;
20928;SDS011;21895;47.072;15.132;2023-03-14T00:04:03;11.57;;;2.10;;
20928;SDS011;21895;47.072;15.132;2023-03-14T00:06:30;10.53;;;2.13;;
20928;SDS011;21895;47.072;15.132;2023-03-14T00:08:57;6.40;;;1.90;;
20928;SDS011;21895;47.072;15.132;2023-03-14T00:11:23;4.70;;;2.00;;
20928;SDS011;21895;47.072;15.132;2023-03-14T00:13:50;9.20;;;2.40;;
20928;SDS011;21895;47.072;15.132;2023-03-14T00:16:18;6.67;;;1.80;;
20928;SDS011;21895;47.072;15.132;2023-03-14T00:18:46;7.23;;;1.90;;
20928;SDS011;21895;47.072;15.132;2023-03-14T00:21:13;6.70;;;1.83;;
20928;SDS011;21895;47.072;15.132;2023-03-14T00:23:40;5.73;;;1.63;;
20928;SDS011;21895;47.072;15.132;2023-03-14T00:26:09;4.43;;;2.40;;
20928;SDS011;21895;47.072;15.132;2023-03-14T00:28:40;3.73;;;1.90;;
20928;SDS011;21895;47.072;15.132;2023-03-14T00:31:08;3.63;;;1.67;;
20928;SDS011;21895;47.072;15.132;2023-03-14T00:33:38;2.70;;;1.70;;
20928;SDS011;21895;47.072;15.132;2023-03-14T00:36:06;3.10;;;1.60;;
20928;SDS011;21895;47.072;15.132;2023-03-14T00:38:39;3.43;;;1.50;;
20928;SDS011;21895;47.072;15.132;2023-03-14T00:41:08;2.50;;;1.60;;
20928;SDS011;21895;47.072;15.132;2023-03-14T00:43:37;2.70;;;1.33;;
20928;SDS011;21895;47.072;15.132;2023-03-14T00:46:04;4.90;;;1.30;;
20928;SDS011;21895;47.072;15.132;2023-03-14T00:48:32;4.17;;;1.53;;
20928;SDS011;21895;47.072;15.132;2023-03-14T00:50:59;3.23;;;1.50;;
20928;SDS011;21895;47.072;15.132;2023-03-14T00:53:26;2.17;;;1.30;;
20928;SDS011;21895;47.072;15.132;2023-03-14T00:55:53;2.73;;;1.40;;
20928;SDS011;21895;47.072;15.132;2023-03-14T00:58:19;1.80;;;1.40;;
20928;SDS011;21895;47.072;15.132;2023-03-14T01:00:46;2.60;;;1.37;;
20928;SDS011;21895;47.072;15.132;2023-03-14T01:03:13;5.90;;;1.40;;
20928;SDS011;21895;47.072;15.132;2023-03-14T01:05:40;2.73;;;1.50;;
20928;SDS011;21895;47.072;15.132;2023-03-14T01:08:07;3.37;;;1.60;;
20928;SDS011;21895;47.072;15.132;2023-03-14T01:10:34;2.80;;;1.37;;
20928;SDS011;21895;47.072;15.132;2023-03-14T01:13:05;7.03;;;1.50;;
20928;SDS011;21895;47.072;15.132;2023-03-14T01:15:33;2.97;;;1.50;;
20928;SDS011;21895;47.072;15.132;2023-03-14T01:18:01;1.83;;;1.50;;
20928;SDS011;21895;47.072;15.132;2023-03-14T01:20:28;2.83;;;1.53;;
20928;SDS011;21895;47.072;15.132;2023-03-14T01:22:54;2.80;;;1.37;;
20928;SDS011;21895;47.072;15.132;2023-03-14T01:25:21;3.20;;;1.33;;
20928;SDS011;21895;47.072;15.132;2023-03-14T01:27:47;2.83;;;1.53;;
20928;SDS011;21895;47.072;15.132;2023-03-14T01:30:14;3.90;;;1.37;;
20928;SDS011;21895;47.072;15.132;2023-03-14T01:32:40;1.97;;;1.17;;
20928;SDS011;21895;47.072;15.132;2023-03-14T01:35:07;5.00;;;1.70;;
20928;SDS011;21895;47.072;15.132;2023-03-14T01:37:34;3.93;;;1.63;;
20928;SDS011;21895;47.072;15.132;2023-03-14T01:40:00;3.53;;;1.50;;
20928;SDS011;21895;47.072;15.132;2023-03-14T01:42:29;3.20;;;1.60;;
20928;SDS011;21895;47.072;15.132;2023-03-14T01:44:56;6.13;;;1.80;;
20928;SDS011;21895;47.072;15.132;2023-03-14T01:47:26;5.40;;;1.67;;
20928;SDS011;21895;47.072;15.132;2023-03-14T01:49:57;4.33;;;1.60;;
20928;SDS011;21895;47.072;15.132;2023-03-14T01:52:32;2.93;;;1.70;;
20928;SDS011;21895;47.072;15.132;2023-03-14T01:55:19;4.43;;;1.73;;
20928;SDS011;21895;47.072;15.132;2023-03-14T01:57:56;7.47;;;1.90;;
20928;SDS011;21895;47.072;15.132;2023-03-14T02:00:29;2.17;;;1.70;;
20928;SDS011;21895;47.072;15.132;2023-03-14T02:02:57;4.60;;;2.00;;
20928;SDS011;21895;47.072;15.132;2023-03-14T02:05:34;2.60;;;1.57;;
20928;SDS011;21895;47.072;15.132;2023-03-14T02:08:08;5.57;;;1.97;;
20928;SDS011;21895;47.072;15.132;2023-03-14T02:10:41;4.67;;;1.80;;
20928;SDS011;21895;47.072;15.132;2023-03-14T02:13:12;10.57;;;1.90;;
20928;SDS011;21895;47.072;15.132;2023-03-14T02:15:42;5.53;;;1.80;;
20928;SDS011;21895;47.072;15.132;2023-03-14T02:18:09;4.37;;;1.83;;
20928;SDS011;21895;47.072;15.132;2023-03-14T02:24:00;2.77;;;2.13;;
20928;SDS011;21895;47.072;15.132;2023-03-14T02:29:43;3.77;;;1.83;;
20928;SDS011;21895;47.072;15.132;2023-03-14T02:32:18;3.00;;;1.87;;
20928;SDS011;21895;47.072;15.132;2023-03-14T02:34:49;3.07;;;1.97;;
20928;SDS011;21895;47.072;15.132;2023-03-14T02:37:22;3.97;;;1.60;;
20928;SDS011;21895;47.072;15.132;2023-03-14T02:40:02;8.50;;;1.67;;
20928;SDS011;21895;47.072;15.132;2023-03-14T02:42:30;2.17;;;1.70;;
20928;SDS011;21895;47.072;15.132;2023-03-14T02:45:01;2.13;;;1.53;;
20928;SDS011;21895;47.072;15.132;2023-03-14T02:48:04;5.13;;;2.07;;
20928;SDS011;21895;47.072;15.132;2023-03-14T02:50:52;3.03;;;1.53;;
20928;SDS011;21895;47.072;15.132;2023-03-14T02:53:27;3.90;;;1.70;;
20928;SDS011;21895;47.072;15.132;2023-03-14T02:56:00;4.20;;;1.70;;
20928;SDS011;21895;47.072;15.132;2023-03-14T02:58:27;4.20;;;1.70;;
20928;SDS011;21895;47.072;15.132;2023-03-14T03:00:54;2.13;;;1.47;;
20928;SDS011;21895;47.072;15.132;2023-03-14T03:03:21;5.03;;;2.30;;
20928;SDS011;21895;47.072;15.132;2023-03-14T03:05:52;3.20;;;1.70;;
20928;SDS011;21895;47.072;15.132;2023-03-14T03:08:21;2.60;;;1.80;;
20928;SDS011;21895;47.072;15.132;2023-03-14T03:10:51;3.67;;;1.73;;
20928;SDS011;21895;47.072;15.132;2023-03-14T03:13:19;5.87;;;1.70;;
20928;SDS011;21895;47.072;15.132;2023-03-14T03:15:45;2.53;;;1.40;;
20928;SDS011;21895;47.072;15.132;2023-03-14T03:18:12;4.20;;;1.80;;
20928;SDS011;21895;47.072;15.132;2023-03-14T03:20:39;5.23;;;1.20;;
20928;SDS011;21895;47.072;15.132;2023-03-14T03:23:05;2.33;;;1.40;;
20928;SDS011;21895;47.072;15.132;2023-03-14T03:25:32;1.60;;;1.30;;
20928;SDS011;21895;47.072;15.132;2023-03-14T03:27:58;4.70;;;1.33;;
20928;SDS011;21895;47.072;15.132;2023-03-14T03:30:25;2.80;;;1.23;;
20928;SDS011;21895;47.072;15.132;2023-03-14T03:32:52;2.40;;;1.23;;
20928;SDS011;21895;47.072;15.132;2023-03-14T03:35:18;1.53;;;1.10;;
20928;SDS011;21895;47.072;15.132;2023-03-14T03:37:45;2.53;;;1.00;;
20928;SDS011;21895;47.072;15.132;2023-03-14T03:40:11;4.07;;;1.50;;
20928;SDS011;21895;47.072;15.132;2023-03-14T03:42:38;5.70;;;1.27;;
20928;SDS011;21895;47.072;15.132;2023-03-14T03:45:04;7.73;;;1.40;;
20928;SDS011;21895;47.072;15.132;2023-03-14T03:47:32;4.07;;;1.90;;
20928;SDS011;21895;47.072;15.132;2023-03-14T03:49:58;2.47;;;1.60;;
20928;SDS011;21895;47.072;15.132;2023-03-14T03:52:25;1.77;;;1.20;;
20928;SDS011;21895;47.072;15.132;2023-03-14T03:54:51;1.47;;;1.20;;
20928;SDS011;21895;47.072;15.132;2023-03-14T03:57:18;2.77;;;1.40;;
20928;SDS011;21895;47.072;15.132;2023-03-14T03:59:45;4.93;;;1.10;;
20928;SDS011;21895;47.072;15.132;2023-03-14T04:02:11;1.20;;;1.10;;
20928;SDS011;21895;47.072;15.132;2023-03-14T04:04:38;2.60;;;1.40;;
20928;SDS011;21895;47.072;15.132;2023-03-14T04:07:05;2.83;;;1.23;;
20928;SDS011;21895;47.072;15.132;2023-03-14T04:09:31;7.80;;;1.23;;
20928;SDS011;21895;47.072;15.132;2023-03-14T04:11:58;1.67;;;1.07;;
20928;SDS011;21895;47.072;15.132;2023-03-14T04:14:24;2.50;;;1.20;;
20928;SDS011;21895;47.072;15.132;2023-03-14T04:16:51;4.43;;;1.13;;
20928;SDS011;21895;47.072;15.132;2023-03-14T04:19:17;3.33;;;1.20;;
20928;SDS011;21895;47.072;15.132;2023-03-14T04:21:44;1.40;;;1.10;;
20928;SDS011;21895;47.072;15.132;2023-03-14T04:24:12;1.27;;;1.13;;
20928;SDS011;21895;47.072;15.132;2023-03-14T04:26:39;1.70;;;1.10;;
20928;SDS011;21895;47.072;15.132;2023-03-14T04:29:05;7.27;;;0.90;;
20928;SDS011;21895;47.072;15.132;2023-03-14T04:31:32;2.17;;;1.23;;
20928;SDS011;21895;47.072;15.132;2023-03-14T04:33:58;2.40;;;1.07;;
20928;SDS011;21895;47.072;15.132;2023-03-14T04:36:25;1.53;;;0.90;;
20928;SDS011;21895;47.072;15.132;2023-03-14T04:38:51;1.37;;;1.00;;
20928;SDS011;21895;47.072;15.132;2023-03-14T04:41:18;1.57;;;1.10;;
20928;SDS011;21895;47.072;15.132;2023-03-14T04:43:44;2.03;;;1.30;;
20928;SDS011;21895;47.072;15.132;2023-03-14T04:46:11;5.23;;;1.17;;
20928;SDS011;21895;47.072;15.132;2023-03-14T04:48:37;3.40;;;1.20;;
20928;SDS011;21895;47.072;15.132;2023-03-14T04:51:04;7.83;;;1.20;;
20928;SDS011;21895;47.072;15.132;2023-03-14T04:53:31;4.00;;;1.20;;
20928;SDS011;21895;47.072;15.132;2023-03-14T04:55:58;2.87;;;1.20;;
20928;SDS011;21895;47.072;15.132;2023-03-14T04:58:25;4.80;;;1.53;;
20928;SDS011;21895;47.072;15.132;2023-03-14T05:00:51;5.87;;;2.10;;
20928;SDS011;21895;47.072;15.132;2023-03-14T05:03:18;5.50;;;1.97;;
20928;SDS011;21895;47.072;15.132;2023-03-14T05:05:45;8.80;;;2.20;;
20928;SDS011;21895;47.072;15.132;2023-03-14T05:08:12;6.53;;;2.60;;
20928;SDS011;21895;47.072;15.132;2023-03-14T05:10:38;7.43;;;2.70;;
20928;SDS011;21895;47.072;15.132;2023-03-14T05:13:05;3.87;;;2.20;;
20928;SDS011;21895;47.072;15.132;2023-03-14T05:15:32;12.60;;;1.90;;
20928;SDS011;21895;47.072;15.132;2023-03-14T05:17:58;7.80;;;1.83;;
20928;SDS011;21895;47.072;15.132;2023-03-14T05:20:25;20.13;;;5.40;;
20928;SDS011;21895;47.072;15.132;2023-03-14T05:22:52;4.53;;;1.80;;
20928;SDS011;21895;47.072;15.132;2023-03-14T05:25:18;3.93;;;1.63;;
20928;SDS011;21895;47.072;15.132;2023-03-14T05:27:45;4.27;;;1.83;;
20928;SDS011;21895;47.072;15.132;2023-03-14T05:30:11;4.50;;;1.30;;
20928;SDS011;21895;47.072;15.132;2023-03-14T05:32:38;8.60;;;1.33;;
20928;SDS011;21895;47.072;15.132;2023-03-14T05:35:05;7.43;;;1.30;;
20928;SDS011;21895;47.072;15.132;2023-03-14T05:37:31;3.00;;;1.20;;
20928;SDS011;21895;47.072;15.132;2023-03-14T05:39:58;5.47;;;1.60;;
20928;SDS011;21895;47.072;15.132;2023-03-14T05:42:24;3.37;;;1.50;;
20928;SDS011;21895;47.072;15.132;2023-03-14T05:44:51;8.77;;;3.73;;
20928;SDS011;21895;47.072;15.132;2023-03-14T05:47:17;8.47;;;2.63;;
20928;SDS011;21895;47.072;15.132;2023-03-14T05:49:44;4.20;;;2.13;;
20928;SDS011;21895;47.072;15.132;2023-03-14T05:52:10;4.17;;;1.80;;
20928;SDS011;21895;47.072;15.132;2023-03-14T05:54:37;1.37;;;1.00;;
20928;SDS011;21895;47.072;15.132;2023-03-14T05:57:03;3.67;;;1.50;;
20928;SDS011;21895;47.072;15.132;2023-03-14T05:59:30;2.97;;;1.50;;
20928;SDS011;21895;47.072;15.132;2023-03-14T06:01:56;4.27;;;1.47;;
20928;SDS011;21895;47.072;15.132;2023-03-14T06:04:23;8.20;;;2.47;;
20928;SDS011;21895;47.072;15.132;2023-03-14T06:06:50;3.50;;;1.87;;
20928;SDS011;21895;47.072;15.132;2023-03-14T06:09:17;9.10;;;1.97;;
20928;SDS011;21895;47.072;15.132;2023-03-14T06:11:45;10.93;;;2.30;;
20928;SDS011;21895;47.072;15.132;2023-03-14T06:14:12;6.73;;;2.37;;
20928;SDS011;21895;47.072;15.132;2023-03-14T06:16:38;10.20;;;2.77;;
20928;SDS011;21895;47.072;15.132;2023-03-14T06:19:05;10.83;;;2.50;;
20928;SDS011;21895;47.072;15.132;2023-03-14T06:21:31;5.20;;;2.20;;
20928;SDS011;21895;47.072;15.132;2023-03-14T06:23:58;7.03;;;2.23;;
20928;SDS011;21895;47.072;15.132;2023-03-14T06:26:24;15.30;;;2.80;;
20928;SDS011;21895;47.072;15.132;2023-03-14T06:28:51;11.43;;;2.47;;
20928;SDS011;21895;47.072;15.132;2023-03-14T06:31:18;6.20;;;1.87;;
20928;SDS011;21895;47.072;15.132;2023-03-14T06:33:45;23.23;;;2.47;;
20928;SDS011;21895;47.072;15.132;2023-03-14T06:36:12;5.23;;;2.30;;
20928;SDS011;21895;47.072;15.132;2023-03-14T06:38:38;4.70;;;1.77;;
20928;SDS011;21895;47.072;15.132;2023-03-14T06:41:05;10.07;;;2.23;;
20928;SDS011;21895;47.072;15.132;2023-03-14T06:43:33;3.63;;;2.10;;
20928;SDS011;21895;47.072;15.132;2023-03-14T06:46:00;6.50;;;2.07;;
20928;SDS011;21895;47.072;15.132;2023-03-14T06:48:26;6.70;;;1.83;;
20928;SDS011;21895;47.072;15.132;2023-03-14T06:50:53;4.20;;;2.00;;
20928;SDS011;21895;47.072;15.132;2023-03-14T06:53:19;4.10;;;2.20;;
20928;SDS011;21895;47.072;15.132;2023-03-14T06:55:46;17.33;;;2.57;;
20928;SDS011;21895;47.072;15.132;2023-03-14T06:58:13;9.37;;;2.73;;
20928;SDS011;21895;47.072;15.132;2023-03-14T07:00:39;8.77;;;2.47;;
20928;SDS011;21895;47.072;15.132;2023-03-14T07:03:06;3.83;;;2.23;;
20928;SDS011;21895;47.072;15.132;2023-03-14T07:05:32;9.77;;;2.60;;
20928;SDS011;21895;47.072;15.132;2023-03-14T07:07:59;5.57;;;1.97;;
20928;SDS011;21895;47.072;15.132;2023-03-14T07:10:25;9.87;;;1.57;;
20928;SDS011;21895;47.072;15.132;2023-03-14T07:12:52;3.43;;;2.17;;
20928;SDS011;21895;47.072;15.132;2023-03-14T07:15:19;7.30;;;2.10;;
20928;SDS011;21895;47.072;15.132;2023-03-14T07:17:46;11.80;;;2.50;;
20928;SDS011;21895;47.072;15.132;2023-03-14T07:20:13;6.60;;;2.20;;
20928;SDS011;21895;47.072;15.132;2023-03-14T07:22:40;3.83;;;2.27;;
20928;SDS011;21895;47.072;15.132;2023-03-14T07:25:06;4.17;;;2.20;;
20928;SDS011;21895;47.072;15.132;2023-03-14T07:27:37;2.23;;;1.67;;
20928;SDS011;21895;47.072;15.132;2023-03-14T07:30:04;2.70;;;1.60;;
20928;SDS011;21895;47.072;15.132;2023-03-14T07:32:32;3.47;;;1.65;;
20928;SDS011;21895;47.072;15.132;2023-03-14T07:34:58;4.00;;;1.93;;
20928;SDS011;21895;47.072;15.132;2023-03-14T07:37:25;2.83;;;1.80;;
20928;SDS011;21895;47.072;15.132;2023-03-14T07:39:51;4.07;;;1.87;;
20928;SDS011;21895;47.072;15.132;2023-03-14T07:42:18;7.70;;;1.90;;
20928;SDS011;21895;47.072;15.132;2023-03-14T07:44:45;5.23;;;1.70;;
20928;SDS011;21895;47.072;15.132;2023-03-14T07:47:11;5.07;;;1.15;;
20928;SDS011;21895;47.072;15.132;2023-03-14T07:49:38;1.85;;;1.15;;
20928;SDS011;21895;47.072;15.132;2023-03-14T07:52:04;7.47;;;1.48;;
20928;SDS011;21895;47.072;15.132;2023-03-14T07:54:31;2.00;;;1.15;;
20928;SDS011;21895;47.072;15.132;2023-03-14T07:56:57;17.35;;;2.10;;
20928;SDS011;21895;47.072;15.132;2023-03-14T07:59:27;2.83;;;1.90;;
20928;SDS011;21895;47.072;15.132;2023-03-14T08:01:53;3.12;;;1.58;;
20928;SDS011;21895;47.072;15.132;2023-03-14T08:04:20;6.85;;;1.60;;
20928;SDS011;21895;47.072;15.132;2023-03-14T08:06:46;6.95;;;1.55;;
20928;SDS011;21895;47.072;15.132;2023-03-14T08:09:13;4.97;;;1.70;;
20928;SDS011;21895;47.072;15.132;2023-03-14T08:11:39;2.62;;;1.80;;
20928;SDS011;21895;47.072;15.132;2023-03-14T08:14:06;2.58;;;1.33;;
20928;SDS011;21895;47.072;15.132;2023-03-14T08:16:32;2.40;;;1.27;;
20928;SDS011;21895;47.072;15.132;2023-03-14T08:18:59;5.37;;;1.48;;
20928;SDS011;21895;47.072;15.132;2023-03-14T08:21:26;12.80;;;2.08;;
20928;SDS011;21895;47.072;15.132;2023-03-14T08:23:55;2.47;;;1.65;;
20928;SDS011;21895;47.072;15.132;2023-03-14T08:26:22;3.45;;;1.52;;
20928;SDS011;21895;47.072;15.132;2023-03-14T08:28:48;5.32;;;2.30;;
20928;SDS011;21895;47.072;15.132;2023-03-14T08:31:15;6.72;;;3.00;;
20928;SDS011;21895;47.072;15.132;2023-03-14T08:33:41;6.62;;;2.30;;
20928;SDS011;21895;47.072;15.132;2023-03-14T08:36:08;5.28;;;2.58;;
20928;SDS011;21895;47.072;15.132;2023-03-14T08:38:35;10.65;;;2.58;;
20928;SDS011;21895;47.072;15.132;2023-03-14T08:41:02;5.43;;;2.62;;
20928;SDS011;21895;47.072;15.132;2023-03-14T08:43:30;7.97;;;2.80;;
20928;SDS011;21895;47.072;15.132;2023-03-14T08:45:57;7.93;;;3.00;;
20928;SDS011;21895;47.072;15.132;2023-03-14T08:48:25;6.63;;;2.50;;
20928;SDS011;21895;47.072;15.132;2023-03-14T08:50:52;8.90;;;2.45;;
20928;SDS011;21895;47.072;15.132;2023-03-14T08:53:19;5.60;;;2.70;;
20928;SDS011;21895;47.072;15.132;2023-03-14T08:55:52;7.80;;;2.60;;
20928;SDS011;21895;47.072;15.132;2023-03-14T08:58:19;4.30;;;2.50;;
20928;SDS011;21895;47.072;15.132;2023-03-14T09:00:48;9.13;;;2.60;;
20928;SDS011;21895;47.072;15.132;2023-03-14T09:03:14;7.60;;;2.83;;
20928;SDS011;21895;47.072;15.132;2023-03-14T09:05:41;9.20;;;2.53;;
20928;SDS011;21895;47.072;15.132;2023-03-14T09:08:08;7.87;;;2.60;;
20928;SDS011;21895;47.072;15.132;2023-03-14T09:10:34;7.62;;;2.72;;
20928;SDS011;21895;47.072;15.132;2023-03-14T09:13:01;8.13;;;2.80;;
20928;SDS011;21895;47.072;15.132;2023-03-14T09:15:27;8.82;;;2.70;;
20928;SDS011;21895;47.072;15.132;2023-03-14T09:17:54;8.60;;;3.10;;
20928;SDS011;21895;47.072;15.132;2023-03-14T09:20:20;10.30;;;2.60;;
20928;SDS011;21895;47.072;15.132;2023-03-14T09:22:47;6.72;;;2.42;;
20928;SDS011;21895;47.072;15.132;2023-03-14T09:25:13;4.45;;;2.42;;
20928;SDS011;21895;47.072;15.132;2023-03-14T09:27:40;11.43;;;3.20;;
20928;SDS011;21895;47.072;15.132;2023-03-14T09:30:07;14.63;;;2.85;;
20928;SDS011;21895;47.072;15.132;2023-03-14T09:32:35;7.80;;;2.20;;
20928;SDS011;21895;47.072;15.132;2023-03-14T09:35:01;6.78;;;2.60;;
20928;SDS011;21895;47.072;15.132;2023-03-14T09:37:28;5.78;;;2.40;;
20928;SDS011;21895;47.072;15.132;2023-03-14T09:39:55;7.80;;;2.40;;
20928;SDS011;21895;47.072;15.132;2023-03-14T09:42:22;18.77;;;2.50;;
20928;SDS011;21895;47.072;15.132;2023-03-14T09:48:02;10.13;;;2.60;;
20928;SDS011;21895;47.072;15.132;2023-03-14T09:50:33;16.50;;;2.00;;
20928;SDS011;21895;47.072;15.132;2023-03-14T09:53:09;3.30;;;1.60;;
20928;SDS011;21895;47.072;15.132;2023-03-14T09:55:43;5.60;;;1.83;;
20928;SDS011;21895;47.072;15.132;2023-03-14T09:58:16;8.68;;;1.87;;
20928;SDS011;21895;47.072;15.132;2023-03-14T10:00:48;4.32;;;1.35;;
20928;SDS011;21895;47.072;15.132;2023-03-14T10:03:21;3.12;;;1.42;;
20928;SDS011;21895;47.072;15.132;2023-03-14T10:05:58;2.85;;;1.40;;
20928;SDS011;21895;47.072;15.132;2023-03-14T10:08:25;6.50;;;0.75;;
20928;SDS011;21895;47.072;15.132;2023-03-14T10:10:51;3.72;;;0.75;;
20928;SDS011;21895;47.072;15.132;2023-03-14T10:13:20;1.65;;;0.45;;
20928;SDS011;21895;47.072;15.132;2023-03-14T10:15:54;0.73;;;0.43;;
20928;SDS011;21895;47.072;15.132;2023-03-14T10:18:27;0.60;;;0.50;;
20928;SDS011;21895;47.072;15.132;2023-03-14T10:21:06;1.17;;;0.40;;
20928;SDS011;21895;47.072;15.132;2023-03-14T10:23:47;3.03;;;0.50;;
20928;SDS011;21895;47.072;15.132;2023-03-14T10:26:33;2.33;;;0.40;;
20928;SDS011;21895;47.072;15.132;2023-03-14T10:29:09;3.03;;;0.30;;
20928;SDS011;21895;47.072;15.132;2023-03-14T10:31:51;0.55;;;0.30;;
20928;SDS011;21895;47.072;15.132;2023-03-14T10:34:34;0.35;;;0.28;;
20928;SDS011;21895;47.072;15.132;2023-03-14T10:37:22;0.55;;;0.32;;
20928;SDS011;21895;47.072;15.132;2023-03-14T10:39:52;6.60;;;0.52;;
20928;SDS011;21895;47.072;15.132;2023-03-14T10:42:25;3.50;;;0.30;;
20928;SDS011;21895;47.072;15.132;2023-03-14T10:44:58;0.30;;;0.30;;
20928;SDS011;21895;47.072;15.132;2023-03-14T10:47:33;2.55;;;0.20;;
20928;SDS011;21895;47.072;15.132;2023-03-14T10:55:29;0.30;;;0.30;;
20928;SDS011;21895;47.072;15.132;2023-03-14T11:02:48;0.60;;;0.50;;
20928;SDS011;21895;47.072;15.132;2023-03-14T11:05:43;0.83;;;0.50;;
20928;SDS011;21895;47.072;15.132;2023-03-14T11:09:43;0.90;;;0.68;;
20928;SDS011;21895;47.072;15.132;2023-03-14T11:12:31;0.40;;;0.37;;
20928;SDS011;21895;47.072;15.132;2023-03-14T11:16:22;0.73;;;0.30;;
20928;SDS011;21895;47.072;15.132;2023-03-14T11:27:18;0.10;;;0.10;;
20928;SDS011;21895;47.072;15.132;2023-03-14T11:30:39;0.30;;;0.30;;
20928;SDS011;21895;47.072;15.132;2023-03-14T11:33:39;0.52;;;0.30;;
20928;SDS011;21895;47.072;15.132;2023-03-14T11:36:46;0.30;;;0.30;;
20928;SDS011;21895;47.072;15.132;2023-03-14T11:39:21;0.50;;;0.30;;
20928;SDS011;21895;47.072;15.132;2023-03-14T11:41:55;0.35;;;0.30;;
20928;SDS011;21895;47.072;15.132;2023-03-14T11:44:27;0.55;;;0.40;;
20928;SDS011;21895;47.072;15.132;2023-03-14T11:47:02;0.40;;;0.40;;
20928;SDS011;21895;47.072;15.132;2023-03-14T11:50:18;2.53;;;0.30;;
20928;SDS011;21895;47.072;15.132;2023-03-14T11:53:01;5.93;;;0.68;;
20928;SDS011;21895;47.072;15.132;2023-03-14T11:55:40;0.77;;;0.50;;
20928;SDS011;21895;47.072;15.132;2023-03-14T11:58:18;0.83;;;0.53;;
20928;SDS011;21895;47.072;15.132;2023-03-14T12:00:53;0.45;;;0.40;;
20928;SDS011;21895;47.072;15.132;2023-03-14T12:03:28;0.20;;;0.20;;
20928;SDS011;21895;47.072;15.132;2023-03-14T12:06:16;0.30;;;0.30;;
20928;SDS011;21895;47.072;15.132;2023-03-14T12:09:03;2.87;;;0.40;;
20928;SDS011;21895;47.072;15.132;2023-03-14T12:11:33;0.60;;;0.30;;
20928;SDS011;21895;47.072;15.132;2023-03-14T12:14:35;0.40;;;0.40;;
20928;SDS011;21895;47.072;15.132;2023-03-14T12:20:24;2.43;;;0.40;;
20928;SDS011;21895;47.072;15.132;2023-03-14T12:25:38;1.27;;;0.70;;
20928;SDS011;21895;47.072;15.132;2023-03-14T12:28:18;2.20;;;0.50;;
20928;SDS011;21895;47.072;15.132;2023-03-14T12:30:56;0.35;;;0.30;;
20928;SDS011;21895;47.072;15.132;2023-03-14T12:34:24;1.02;;;0.60;;
20928;SDS011;21895;47.072;15.132;2023-03-14T12:37:16;1.33;;;0.40;;
20928;SDS011;21895;47.072;15.132;2023-03-14T12:40:15;1.75;;;0.40;;
20928;SDS011;21895;47.072;15.132;2023-03-14T12:43:02;1.58;;;0.45;;
20928;SDS011;21895;47.072;15.132;2023-03-14T12:46:06;0.40;;;0.30;;
20928;SDS011;21895;47.072;15.132;2023-03-14T12:49:04;0.75;;;0.43;;
20928;SDS011;21895;47.072;15.132;2023-03-14T12:51:38;1.83;;;0.47;;
20928;SDS011;21895;47.072;15.132;2023-03-14T13:00:41;0.40;;;0.40;;
20928;SDS011;21895;47.072;15.132;2023-03-14T13:03:21;0.77;;;0.40;;
20928;SDS011;21895;47.072;15.132;2023-03-14T13:05:55;4.12;;;0.43;;
20928;SDS011;21895;47.072;15.132;2023-03-14T13:08:40;3.03;;;0.70;;
20928;SDS011;21895;47.072;15.132;2023-03-14T13:11:12;8.70;;;0.50;;
20928;SDS011;21895;47.072;15.132;2023-03-14T13:13:51;0.62;;;0.40;;
20928;SDS011;21895;47.072;15.132;2023-03-14T13:16:24;4.60;;;0.50;;
20928;SDS011;21895;47.072;15.132;2023-03-14T13:19:13;0.40;;;0.30;;
20928;SDS011;21895;47.072;15.132;2023-03-14T13:21:49;1.73;;;0.52;;
20928;SDS011;21895;47.072;15.132;2023-03-14T13:24:24;2.90;;;0.47;;
20928;SDS011;21895;47.072;15.132;2023-03-14T13:26:53;2.67;;;0.60;;
20928;SDS011;21895;47.072;15.132;2023-03-14T13:29:22;2.10;;;0.40;;
20928;SDS011;21895;47.072;15.132;2023-03-14T13:31:59;0.70;;;0.60;;
20928;SDS011;21895;47.072;15.132;2023-03-14T13:34:38;1.58;;;0.40;;
20928;SDS011;21895;47.072;15.132;2023-03-14T13:37:13;0.50;;;0.50;;
20928;SDS011;21895;47.072;15.132;2023-03-14T13:39:49;1.02;;;0.60;;
20928;SDS011;21895;47.072;15.132;2023-03-14T13:42:27;5.05;;;0.80;;
20928;SDS011;21895;47.072;15.132;2023-03-14T13:44:55;0.88;;;0.52;;
20928;SDS011;21895;47.072;15.132;2023-03-14T13:47:25;1.17;;;0.50;;
20928;SDS011;21895;47.072;15.132;2023-03-14T13:49:52;1.90;;;0.70;;
20928;SDS011;21895;47.072;15.132;2023-03-14T13:52:37;0.50;;;0.50;;
20928;SDS011;21895;47.072;15.132;2023-03-14T13:55:05;1.10;;;0.60;;
20928;SDS011;21895;47.072;15.132;2023-03-14T13:57:44;0.55;;;0.40;;
20928;SDS011;21895;47.072;15.132;2023-03-14T14:00:18;0.90;;;0.50;;
20928;SDS011;21895;47.072;15.132;2023-03-14T14:02:49;0.82;;;0.60;;
20928;SDS011;21895;47.072;15.132;2023-03-14T14:05:17;1.42;;;0.60;;
20928;SDS011;21895;47.072;15.132;2023-03-14T14:07:43;0.77;;;0.60;;
20928;SDS011;21895;47.072;15.132;2023-03-14T14:10:11;1.80;;;0.60;;
20928;SDS011;21895;47.072;15.132;2023-03-14T14:12:41;2.17;;;0.62;;
20928;SDS011;21895;47.072;15.132;2023-03-14T14:15:19;0.37;;;0.37;;
20928;SDS011;21895;47.072;15.132;2023-03-14T14:17:52;2.03;;;0.50;;
20928;SDS011;21895;47.072;15.132;2023-03-14T14:20:28;0.80;;;0.50;;
20928;SDS011;21895;47.072;15.132;2023-03-14T14:23:02;1.15;;;0.47;;
20928;SDS011;21895;47.072;15.132;2023-03-14T14:25:32;0.73;;;0.60;;
20928;SDS011;21895;47.072;15.132;2023-03-14T14:27:59;0.90;;;0.80;;
20928;SDS011;21895;47.072;15.132;2023-03-14T14:30:41;0.50;;;0.50;;
20928;SDS011;21895;47.072;15.132;2023-03-14T14:33:20;2.75;;;0.60;;
20928;SDS011;21895;47.072;15.132;2023-03-14T14:35:55;4.12;;;0.70;;
20928;SDS011;21895;47.072;15.132;2023-03-14T14:38:25;2.47;;;0.43;;
20928;SDS011;21895;47.072;15.132;2023-03-14T14:40:58;1.30;;;0.50;;
20928;SDS011;21895;47.072;15.132;2023-03-14T14:43:28;1.90;;;0.70;;
20928;SDS011;21895;47.072;15.132;2023-03-14T14:46:05;1.75;;;0.73;;
20928;SDS011;21895;47.072;15.132;2023-03-14T14:48:36;1.77;;;0.55;;
20928;SDS011;21895;47.072;15.132;2023-03-14T14:51:04;0.75;;;0.50;;
20928;SDS011;21895;47.072;15.132;2023-03-14T14:53:37;0.62;;;0.50;;
20928;SDS011;21895;47.072;15.132;2023-03-14T14:56:21;1.50;;;0.80;;
20928;SDS011;21895;47.072;15.132;2023-03-14T14:58:57;1.15;;;0.70;;
20928;SDS011;21895;47.072;15.132;2023-03-14T15:01:37;2.08;;;0.80;;
20928;SDS011;21895;47.072;15.132;2023-03-14T15:04:11;3.90;;;0.90;;
20928;SDS011;21895;47.072;15.132;2023-03-14T15:06:44;2.42;;;1.00;;
20928;SDS011;21895;47.072;15.132;2023-03-14T15:09:14;1.08;;;0.70;;
20928;SDS011;21895;47.072;15.132;2023-03-14T15:11:42;1.25;;;0.70;;
20928;SDS011;21895;47.072;15.132;2023-03-14T15:14:09;2.17;;;0.80;;
20928;SDS011;21895;47.072;15.132;2023-03-14T15:16:36;2.90;;;0.70;;
20928;SDS011;21895;47.072;15.132;2023-03-14T15:19:10;0.77;;;0.77;;
20928;SDS011;21895;47.072;15.132;2023-03-14T15:21:51;13.75;;;1.40;;
20928;SDS011;21895;47.072;15.132;2023-03-14T15:24:18;0.77;;;0.60;;
20928;SDS011;21895;47.072;15.132;2023-03-14T15:26:45;3.60;;;0.90;;
20928;SDS011;21895;47.072;15.132;2023-03-14T15:29:12;2.75;;;0.80;;
20928;SDS011;21895;47.072;15.132;2023-03-14T15:31:39;1.90;;;0.75;;
20928;SDS011;21895;47.072;15.132;2023-03-14T15:34:06;3.90;;;0.80;;
20928;SDS011;21895;47.072;15.132;2023-03-14T15:36:34;3.67;;;1.00;;
20928;SDS011;21895;47.072;15.132;2023-03-14T15:39:02;1.67;;;0.90;;